sensor_id;sensor_type;location;lat;lon;timestamp;pressure;altitude;pressure_sealevel;temperature;humidity
41654;BME280;68687;52.030;7.110;2023-06-26T00:01:27;100541.66;;;23.38;60.48
41654;BME280;68687;52.030;7.110;2023-06-26T00:03:59;100538.81;;;23.12;60.91
41654;BME280;68687;52.030;7.110;2023-06-26T00:06:27;100529.78;;;23.12;60.76
41654;BME280;68687;52.030;7.110;2023-06-26T00:08:55;100525.94;;;23.08;61.06
41654;BME280;68687;52.030;7.110;2023-06-26T00:11:22;100531.78;;;23.32;60.42
41654;BME280;68687;52.030;7.110;2023-06-26T00:13:47;100521.56;;;23.02;60.90
41654;BME280;68687;52.030;7.110;2023-06-26T00:16:15;100519.94;;;23.21;60.62
41654;BME280;68687;52.030;7.110;2023-06-26T00:18:41;100519.06;;;23.00;60.71
41654;BME280;68687;52.030;7.110;2023-06-26T00:21:12;100518.56;;;23.03;60.72
41654;BME280;68687;52.030;7.110;2023-06-26T00:23:43;100514.69;;;22.99;60.62
41654;BME280;68687;52.030;7.110;2023-06-26T00:26:08;100512.19;;;22.93;61.34
41654;BME280;68687;52.030;7.110;2023-06-26T00:28:35;100509.81;;;23.22;59.40
41654;BME280;68687;52.030;7.110;2023-06-26T00:31:00;100514.19;;;23.07;59.57
41654;BME280;68687;52.030;7.110;2023-06-26T00:33:29;100512.53;;;23.11;59.05
41654;BME280;68687;52.030;7.110;2023-06-26T00:35:54;100513.06;;;23.03;59.38
41654;BME280;68687;52.030;7.110;2023-06-26T00:38:19;100512.72;;;22.90;59.73
41654;BME280;68687;52.030;7.110;2023-06-26T00:40:44;100512.72;;;22.85;60.69
41654;BME280;68687;52.030;7.110;2023-06-26T00:43:19;100512.03;;;22.67;61.26
41654;BME280;68687;52.030;7.110;2023-06-26T00:45:44;100503.84;;;22.67;60.90
41654;BME280;68687;52.030;7.110;2023-06-26T00:48:10;100507.34;;;22.52;61.85
41654;BME280;68687;52.030;7.110;2023-06-26T00:50:37;100508.72;;;22.60;61.50
41654;BME280;68687;52.030;7.110;2023-06-26T00:53:03;100498.28;;;22.47;62.26
41654;BME280;68687;52.030;7.110;2023-06-26T00:55:29;100498.78;;;22.44;61.81
41654;BME280;68687;52.030;7.110;2023-06-26T00:57:55;100489.28;;;22.51;61.27
41654;BME280;68687;52.030;7.110;2023-06-26T01:00:20;100492.00;;;22.46;61.87
41654;BME280;68687;52.030;7.110;2023-06-26T01:02:46;100491.94;;;22.41;61.67
41654;BME280;68687;52.030;7.110;2023-06-26T01:05:11;100489.22;;;22.41;61.92
41654;BME280;68687;52.030;7.110;2023-06-26T01:07:44;100487.28;;;22.37;62.33
41654;BME280;68687;52.030;7.110;2023-06-26T01:10:12;100488.66;;;22.39;62.37
41654;BME280;68687;52.030;7.110;2023-06-26T01:12:38;100479.88;;;22.32;62.71
41654;BME280;68687;52.030;7.110;2023-06-26T01:15:04;100478.22;;;22.31;62.30
41654;BME280;68687;52.030;7.110;2023-06-26T01:17:30;100479.81;;;22.22;62.99
41654;BME280;68687;52.030;7.110;2023-06-26T01:20:05;100471.53;;;22.12;63.37
41654;BME280;68687;52.030;7.110;2023-06-26T01:28:14;100470.22;;;22.19;62.87
41654;BME280;68687;52.030;7.110;2023-06-26T01:30:42;100449.91;;;22.05;63.18
41654;BME280;68687;52.030;7.110;2023-06-26T01:33:08;100455.53;;;21.94;64.16
41654;BME280;68687;52.030;7.110;2023-06-26T01:35:33;100458.97;;;22.16;62.90
41654;BME280;68687;52.030;7.110;2023-06-26T01:38:31;100449.63;;;22.07;63.34
41654;BME280;68687;52.030;7.110;2023-06-26T01:40:58;100448.25;;;22.04;63.13
41654;BME280;68687;52.030;7.110;2023-06-26T01:52:53;100452.84;;;21.99;63.34
41654;BME280;68687;52.030;7.110;2023-06-26T01:58:07;100442.09;;;21.87;64.19
41654;BME280;68687;52.030;7.110;2023-06-26T02:00:33;100442.66;;;21.57;65.44
41654;BME280;68687;52.030;7.110;2023-06-26T02:02:59;100443.78;;;21.61;65.15
41654;BME280;68687;52.030;7.110;2023-06-26T02:05:25;100444.28;;;21.53;65.47
41654;BME280;68687;52.030;7.110;2023-06-26T02:07:53;100450.31;;;21.55;65.55
41654;BME280;68687;52.030;7.110;2023-06-26T02:10:21;100444.19;;;21.75;64.60
41654;BME280;68687;52.030;7.110;2023-06-26T02:12:47;100449.19;;;21.51;65.37
41654;BME280;68687;52.030;7.110;2023-06-26T02:15:12;100451.47;;;21.32;66.31
41654;BME280;68687;52.030;7.110;2023-06-26T02:17:37;100443.06;;;21.39;66.05
41654;BME280;68687;52.030;7.110;2023-06-26T02:20:03;100430.41;;;21.27;66.29
41654;BME280;68687;52.030;7.110;2023-06-26T02:22:28;100443.91;;;21.39;66.14
41654;BME280;68687;52.030;7.110;2023-06-26T02:24:54;100440.22;;;21.28;66.07
41654;BME280;68687;52.030;7.110;2023-06-26T02:27:22;100442.91;;;21.23;66.65
41654;BME280;68687;52.030;7.110;2023-06-26T02:29:47;100444.09;;;21.33;66.41
41654;BME280;68687;52.030;7.110;2023-06-26T02:32:13;100443.63;;;21.14;67.14
41654;BME280;68687;52.030;7.110;2023-06-26T02:34:38;100441.16;;;21.12;67.20
41654;BME280;68687;52.030;7.110;2023-06-26T02:37:04;100441.41;;;21.11;67.58
41654;BME280;68687;52.030;7.110;2023-06-26T02:39:31;100430.75;;;21.09;67.71
41654;BME280;68687;52.030;7.110;2023-06-26T02:41:56;100435.13;;;20.83;68.87
41654;BME280;68687;52.030;7.110;2023-06-26T02:44:22;100433.81;;;20.91;68.17
41654;BME280;68687;52.030;7.110;2023-06-26T02:46:50;100440.75;;;20.77;69.18
41654;BME280;68687;52.030;7.110;2023-06-26T02:49:15;100450.16;;;20.86;68.78
41654;BME280;68687;52.030;7.110;2023-06-26T02:51:44;100447.34;;;20.81;68.78
41654;BME280;68687;52.030;7.110;2023-06-26T02:54:09;100440.91;;;21.14;67.94
41654;BME280;68687;52.030;7.110;2023-06-26T02:56:34;100431.63;;;20.88;69.02
41654;BME280;68687;52.030;7.110;2023-06-26T02:58:59;100448.50;;;20.85;69.02
41654;BME280;68687;52.030;7.110;2023-06-26T03:01:25;100452.19;;;21.01;68.37
41654;BME280;68687;52.030;7.110;2023-06-26T03:03:51;100450.31;;;20.79;69.36
41654;BME280;68687;52.030;7.110;2023-06-26T03:06:16;100459.78;;;20.72;69.57
41654;BME280;68687;52.030;7.110;2023-06-26T03:08:42;100460.09;;;20.75;69.26
41654;BME280;68687;52.030;7.110;2023-06-26T03:11:10;100459.97;;;20.87;68.52
41654;BME280;68687;52.030;7.110;2023-06-26T03:13:36;100454.38;;;20.77;68.81
41654;BME280;68687;52.030;7.110;2023-06-26T03:16:02;100470.31;;;20.85;69.34
41654;BME280;68687;52.030;7.110;2023-06-26T03:18:31;100459.97;;;20.87;69.01
41654;BME280;68687;52.030;7.110;2023-06-26T03:20:56;100464.22;;;20.78;69.36
41654;BME280;68687;52.030;7.110;2023-06-26T03:23:22;100464.41;;;20.71;69.88
41654;BME280;68687;52.030;7.110;2023-06-26T03:25:51;100455.03;;;20.84;69.66
41654;BME280;68687;52.030;7.110;2023-06-26T03:28:16;100468.34;;;20.80;69.51
41654;BME280;68687;52.030;7.110;2023-06-26T03:30:42;100467.75;;;20.78;70.04
41654;BME280;68687;52.030;7.110;2023-06-26T03:33:07;100460.22;;;20.85;69.55
41654;BME280;68687;52.030;7.110;2023-06-26T03:35:32;100463.22;;;20.84;69.75
41654;BME280;68687;52.030;7.110;2023-06-26T03:37:58;100458.59;;;20.84;70.06
41654;BME280;68687;52.030;7.110;2023-06-26T03:40:24;100456.34;;;20.81;69.98
41654;BME280;68687;52.030;7.110;2023-06-26T03:42:49;100454.94;;;20.79;70.12
41654;BME280;68687;52.030;7.110;2023-06-26T03:45:17;100459.00;;;20.76;70.38
41654;BME280;68687;52.030;7.110;2023-06-26T03:47:44;100460.75;;;20.82;70.21
41654;BME280;68687;52.030;7.110;2023-06-26T03:50:09;100462.69;;;20.87;70.22
41654;BME280;68687;52.030;7.110;2023-06-26T03:52:34;100465.38;;;20.82;70.67
41654;BME280;68687;52.030;7.110;2023-06-26T03:55:06;100478.63;;;20.95;70.47
41654;BME280;68687;52.030;7.110;2023-06-26T03:57:34;100477.53;;;20.96;70.13
41654;BME280;68687;52.030;7.110;2023-06-26T04:00:00;100481.50;;;20.83;71.19
41654;BME280;68687;52.030;7.110;2023-06-26T04:02:25;100487.31;;;20.92;70.78
41654;BME280;68687;52.030;7.110;2023-06-26T04:04:50;100490.88;;;20.92;70.80
41654;BME280;68687;52.030;7.110;2023-06-26T04:07:18;100490.53;;;21.11;70.47
41654;BME280;68687;52.030;7.110;2023-06-26T04:09:46;100482.59;;;21.09;70.35
41654;BME280;68687;52.030;7.110;2023-06-26T04:12:14;100479.63;;;21.11;70.16
41654;BME280;68687;52.030;7.110;2023-06-26T04:14:39;100487.94;;;20.99;71.98
41654;BME280;68687;52.030;7.110;2023-06-26T04:17:05;100498.13;;;21.09;71.41
41654;BME280;68687;52.030;7.110;2023-06-26T04:19:30;100497.81;;;21.05;71.68
41654;BME280;68687;52.030;7.110;2023-06-26T04:22:01;100498.97;;;21.09;71.98
41654;BME280;68687;52.030;7.110;2023-06-26T04:24:27;100494.09;;;21.11;71.74
41654;BME280;68687;52.030;7.110;2023-06-26T04:26:52;100501.13;;;21.07;72.30
41654;BME280;68687;52.030;7.110;2023-06-26T04:29:17;100506.13;;;21.15;72.11
41654;BME280;68687;52.030;7.110;2023-06-26T04:31:43;100502.91;;;21.18;72.44
41654;BME280;68687;52.030;7.110;2023-06-26T04:34:12;100499.47;;;21.28;71.85
41654;BME280;68687;52.030;7.110;2023-06-26T04:36:43;100501.69;;;21.31;72.02
41654;BME280;68687;52.030;7.110;2023-06-26T04:39:13;100506.75;;;21.44;71.56
41654;BME280;68687;52.030;7.110;2023-06-26T04:41:40;100507.78;;;21.38;72.03
41654;BME280;68687;52.030;7.110;2023-06-26T04:44:05;100511.13;;;21.45;72.63
41654;BME280;68687;52.030;7.110;2023-06-26T04:46:30;100515.72;;;21.40;72.73
41654;BME280;68687;52.030;7.110;2023-06-26T04:48:56;100504.41;;;21.58;72.03
41654;BME280;68687;52.030;7.110;2023-06-26T04:51:29;100506.69;;;21.66;71.51
41654;BME280;68687;52.030;7.110;2023-06-26T04:53:54;100510.03;;;21.73;71.52
41654;BME280;68687;52.030;7.110;2023-06-26T04:56:22;100510.31;;;21.77;71.44
41654;BME280;68687;52.030;7.110;2023-06-26T04:58:48;100508.34;;;21.67;71.50
41654;BME280;68687;52.030;7.110;2023-06-26T05:01:13;100505.16;;;21.80;71.07
41654;BME280;68687;52.030;7.110;2023-06-26T05:03:40;100513.91;;;21.82;70.94
41654;BME280;68687;52.030;7.110;2023-06-26T05:06:05;100509.78;;;22.07;70.24
41654;BME280;68687;52.030;7.110;2023-06-26T05:08:31;100513.88;;;22.09;69.87
41654;BME280;68687;52.030;7.110;2023-06-26T05:11:02;100521.44;;;22.34;69.49
41654;BME280;68687;52.030;7.110;2023-06-26T05:13:28;100529.56;;;22.19;69.38
41654;BME280;68687;52.030;7.110;2023-06-26T05:15:53;100519.03;;;22.43;68.99
41654;BME280;68687;52.030;7.110;2023-06-26T05:18:19;100533.03;;;22.46;68.76
41654;BME280;68687;52.030;7.110;2023-06-26T05:20:45;100535.94;;;22.35;69.45
41654;BME280;68687;52.030;7.110;2023-06-26T05:23:12;100535.56;;;22.63;67.91
41654;BME280;68687;52.030;7.110;2023-06-26T05:25:38;100540.44;;;22.56;68.16
41654;BME280;68687;52.030;7.110;2023-06-26T05:28:04;100538.38;;;22.78;67.39
41654;BME280;68687;52.030;7.110;2023-06-26T05:30:35;100541.56;;;23.07;66.35
41654;BME280;68687;52.030;7.110;2023-06-26T05:33:04;100548.50;;;22.78;66.80
41654;BME280;68687;52.030;7.110;2023-06-26T05:35:31;100555.44;;;22.96;66.52
41654;BME280;68687;52.030;7.110;2023-06-26T05:38:02;100562.38;;;23.19;65.59
41654;BME280;68687;52.030;7.110;2023-06-26T05:40:34;100567.47;;;23.62;65.10
41654;BME280;68687;52.030;7.110;2023-06-26T05:43:00;100567.22;;;23.64;64.40
41654;BME280;68687;52.030;7.110;2023-06-26T05:45:28;100565.28;;;23.59;64.70
41654;BME280;68687;52.030;7.110;2023-06-26T05:47:53;100557.81;;;23.34;65.10
41654;BME280;68687;52.030;7.110;2023-06-26T05:50:19;100563.50;;;23.28;65.15
41654;BME280;68687;52.030;7.110;2023-06-26T05:52:45;100568.41;;;23.10;66.18
41654;BME280;68687;52.030;7.110;2023-06-26T05:55:13;100564.97;;;22.83;67.10
41654;BME280;68687;52.030;7.110;2023-06-26T05:57:43;100564.72;;;22.90;67.29
41654;BME280;68687;52.030;7.110;2023-06-26T06:00:12;100556.09;;;23.23;66.92
41654;BME280;68687;52.030;7.110;2023-06-26T06:02:38;100552.00;;;23.21;66.19
41654;BME280;68687;52.030;7.110;2023-06-26T06:05:03;100562.19;;;23.35;66.20
41654;BME280;68687;52.030;7.110;2023-06-26T06:07:31;100557.69;;;23.04;67.56
41654;BME280;68687;52.030;7.110;2023-06-26T06:09:57;100575.63;;;23.42;66.30
41654;BME280;68687;52.030;7.110;2023-06-26T06:12:23;100589.50;;;23.20;66.24
41654;BME280;68687;52.030;7.110;2023-06-26T06:14:48;100579.16;;;23.32;66.02
41654;BME280;68687;52.030;7.110;2023-06-26T06:17:20;100580.44;;;23.09;66.62
41654;BME280;68687;52.030;7.110;2023-06-26T06:19:45;100581.47;;;22.98;67.50
41654;BME280;68687;52.030;7.110;2023-06-26T06:22:11;100571.22;;;22.78;67.73
41654;BME280;68687;52.030;7.110;2023-06-26T06:24:42;100576.63;;;22.68;67.98
41654;BME280;68687;52.030;7.110;2023-06-26T06:27:07;100590.94;;;22.38;69.82
41654;BME280;68687;52.030;7.110;2023-06-26T06:29:36;100594.16;;;22.30;70.04
41654;BME280;68687;52.030;7.110;2023-06-26T06:32:01;100598.31;;;22.38;70.40
41654;BME280;68687;52.030;7.110;2023-06-26T06:34:32;100609.84;;;22.45;70.05
41654;BME280;68687;52.030;7.110;2023-06-26T06:36:58;100616.88;;;22.73;69.38
41654;BME280;68687;52.030;7.110;2023-06-26T06:39:26;100622.13;;;22.79;69.02
41654;BME280;68687;52.030;7.110;2023-06-26T06:41:55;100622.19;;;23.47;67.84
41654;BME280;68687;52.030;7.110;2023-06-26T06:44:20;100627.75;;;23.57;67.28
41654;BME280;68687;52.030;7.110;2023-06-26T06:46:45;100643.72;;;23.86;66.25
41654;BME280;68687;52.030;7.110;2023-06-26T06:49:10;100644.84;;;24.05;64.97
41654;BME280;68687;52.030;7.110;2023-06-26T06:51:36;100646.16;;;23.77;65.76
41654;BME280;68687;52.030;7.110;2023-06-26T06:54:04;100647.50;;;23.64;66.22
41654;BME280;68687;52.030;7.110;2023-06-26T06:56:29;100649.47;;;23.89;64.84
41654;BME280;68687;52.030;7.110;2023-06-26T06:58:55;100649.81;;;24.18;64.97
41654;BME280;68687;52.030;7.110;2023-06-26T07:01:23;100655.31;;;24.49;63.87
41654;BME280;68687;52.030;7.110;2023-06-26T07:03:48;100662.13;;;25.07;63.63
41654;BME280;68687;52.030;7.110;2023-06-26T07:06:14;100661.06;;;24.62;62.92
41654;BME280;68687;52.030;7.110;2023-06-26T07:08:39;100662.97;;;24.62;62.30
41654;BME280;68687;52.030;7.110;2023-06-26T07:11:04;100661.88;;;24.93;61.52
41654;BME280;68687;52.030;7.110;2023-06-26T07:13:32;100667.25;;;25.34;61.46
41654;BME280;68687;52.030;7.110;2023-06-26T07:15:58;100668.72;;;25.06;60.19
41654;BME280;68687;52.030;7.110;2023-06-26T07:18:23;100665.16;;;25.06;58.69
41654;BME280;68687;52.030;7.110;2023-06-26T07:20:48;100676.16;;;24.80;59.08
41654;BME280;68687;52.030;7.110;2023-06-26T07:23:13;100672.75;;;25.34;58.73
41654;BME280;68687;52.030;7.110;2023-06-26T07:25:39;100674.19;;;25.86;58.04
41654;BME280;68687;52.030;7.110;2023-06-26T07:28:10;100674.91;;;25.42;58.71
41654;BME280;68687;52.030;7.110;2023-06-26T07:30:35;100671.31;;;25.52;57.54
41654;BME280;68687;52.030;7.110;2023-06-26T07:33:01;100665.47;;;25.64;56.81
41654;BME280;68687;52.030;7.110;2023-06-26T07:35:26;100664.78;;;26.36;55.76
41654;BME280;68687;52.030;7.110;2023-06-26T07:37:52;100665.69;;;26.22;56.58
41654;BME280;68687;52.030;7.110;2023-06-26T07:40:17;100660.00;;;26.47;55.92
41654;BME280;68687;52.030;7.110;2023-06-26T07:42:43;100675.31;;;26.63;55.47
41654;BME280;68687;52.030;7.110;2023-06-26T07:45:08;100679.03;;;25.99;56.57
41654;BME280;68687;52.030;7.110;2023-06-26T07:47:40;100681.09;;;26.23;55.90
41654;BME280;68687;52.030;7.110;2023-06-26T07:50:05;100683.72;;;25.99;55.32
41654;BME280;68687;52.030;7.110;2023-06-26T07:52:31;100687.44;;;26.62;56.35
41654;BME280;68687;52.030;7.110;2023-06-26T07:54:57;100696.16;;;26.98;53.70
41654;BME280;68687;52.030;7.110;2023-06-26T07:57:25;100698.50;;;26.52;54.97
41654;BME280;68687;52.030;7.110;2023-06-26T07:59:51;100707.03;;;26.11;54.83
41654;BME280;68687;52.030;7.110;2023-06-26T08:02:16;100708.91;;;26.60;54.36
41654;BME280;68687;52.030;7.110;2023-06-26T08:04:42;100717.78;;;26.08;55.22
41654;BME280;68687;52.030;7.110;2023-06-26T08:07:08;100706.38;;;26.98;53.01
41654;BME280;68687;52.030;7.110;2023-06-26T08:09:37;100719.25;;;26.73;52.64
41654;BME280;68687;52.030;7.110;2023-06-26T08:12:02;100724.00;;;26.97;52.08
41654;BME280;68687;52.030;7.110;2023-06-26T08:14:27;100724.25;;;26.32;52.75
41654;BME280;68687;52.030;7.110;2023-06-26T08:16:53;100724.97;;;26.04;52.39
41654;BME280;68687;52.030;7.110;2023-06-26T08:19:18;100736.75;;;26.09;53.12
41654;BME280;68687;52.030;7.110;2023-06-26T08:21:45;100726.50;;;26.64;53.01
41654;BME280;68687;52.030;7.110;2023-06-26T08:24:14;100728.81;;;26.47;51.77
41654;BME280;68687;52.030;7.110;2023-06-26T08:26:45;100739.09;;;26.31;52.06
41654;BME280;68687;52.030;7.110;2023-06-26T08:29:14;100729.72;;;25.88;52.49
41654;BME280;68687;52.030;7.110;2023-06-26T08:31:49;100732.94;;;26.05;52.58
41654;BME280;68687;52.030;7.110;2023-06-26T08:34:14;100732.06;;;26.54;50.54
41654;BME280;68687;52.030;7.110;2023-06-26T08:36:39;100732.78;;;26.36;50.29
41654;BME280;68687;52.030;7.110;2023-06-26T08:39:05;100735.72;;;26.44;49.42
41654;BME280;68687;52.030;7.110;2023-06-26T08:41:30;100740.22;;;26.69;50.12
41654;BME280;68687;52.030;7.110;2023-06-26T08:43:56;100745.19;;;26.67;49.65
41654;BME280;68687;52.030;7.110;2023-06-26T08:46:22;100748.50;;;25.76;51.42
41654;BME280;68687;52.030;7.110;2023-06-26T08:49:00;100750.25;;;25.31;52.17
41654;BME280;68687;52.030;7.110;2023-06-26T08:51:30;100756.16;;;25.74;52.23
41654;BME280;68687;52.030;7.110;2023-06-26T08:54:01;100753.41;;;26.38;50.52
41654;BME280;68687;52.030;7.110;2023-06-26T08:56:41;100755.91;;;26.25;51.20
41654;BME280;68687;52.030;7.110;2023-06-26T08:59:07;100755.88;;;26.74;48.81
41654;BME280;68687;52.030;7.110;2023-06-26T09:01:35;100750.66;;;26.38;48.43
41654;BME280;68687;52.030;7.110;2023-06-26T09:04:01;100764.34;;;25.94;48.84
41654;BME280;68687;52.030;7.110;2023-06-26T09:06:26;100769.81;;;26.04;49.02
41654;BME280;68687;52.030;7.110;2023-06-26T09:08:55;100772.38;;;26.40;48.92
41654;BME280;68687;52.030;7.110;2023-06-26T09:11:20;100770.38;;;26.51;47.27
41654;BME280;68687;52.030;7.110;2023-06-26T09:13:46;100764.22;;;26.98;47.05
41654;BME280;68687;52.030;7.110;2023-06-26T09:16:12;100768.06;;;27.55;46.62
41654;BME280;68687;52.030;7.110;2023-06-26T09:18:40;100772.41;;;26.35;47.08
41654;BME280;68687;52.030;7.110;2023-06-26T09:21:12;100776.28;;;26.34;47.27
41654;BME280;68687;52.030;7.110;2023-06-26T09:23:44;100773.38;;;26.54;46.54
41654;BME280;68687;52.030;7.110;2023-06-26T09:26:11;100777.06;;;25.75;47.88
41654;BME280;68687;52.030;7.110;2023-06-26T09:28:36;100783.16;;;26.26;48.11
41654;BME280;68687;52.030;7.110;2023-06-26T09:31:05;100775.72;;;26.32;47.12
41654;BME280;68687;52.030;7.110;2023-06-26T09:33:35;100781.28;;;26.16;47.51
41654;BME280;68687;52.030;7.110;2023-06-26T09:36:07;100792.63;;;26.59;47.84
41654;BME280;68687;52.030;7.110;2023-06-26T09:38:35;100784.91;;;26.56;47.08
41654;BME280;68687;52.030;7.110;2023-06-26T09:41:01;100780.31;;;25.92;48.11
41654;BME280;68687;52.030;7.110;2023-06-26T09:43:26;100791.31;;;25.87;48.00
41654;BME280;68687;52.030;7.110;2023-06-26T09:45:52;100789.13;;;25.89;46.63
41654;BME280;68687;52.030;7.110;2023-06-26T09:48:19;100792.38;;;25.96;46.07
41654;BME280;68687;52.030;7.110;2023-06-26T09:50:44;100798.81;;;26.31;46.40
41654;BME280;68687;52.030;7.110;2023-06-26T09:53:11;100805.06;;;26.46;45.84
41654;BME280;68687;52.030;7.110;2023-06-26T09:55:38;100778.78;;;26.69;44.43
41654;BME280;68687;52.030;7.110;2023-06-26T09:58:05;100790.97;;;27.79;45.85
41654;BME280;68687;52.030;7.110;2023-06-26T10:00:33;100783.16;;;27.86;44.57
41654;BME280;68687;52.030;7.110;2023-06-26T10:02:59;100800.59;;;26.95;43.93
41654;BME280;68687;52.030;7.110;2023-06-26T10:05:25;100796.78;;;26.91;43.32
41654;BME280;68687;52.030;7.110;2023-06-26T10:07:58;100791.34;;;27.73;43.64
41654;BME280;68687;52.030;7.110;2023-06-26T10:10:24;100804.47;;;27.28;42.35
41654;BME280;68687;52.030;7.110;2023-06-26T10:12:54;100797.03;;;27.81;41.56
41654;BME280;68687;52.030;7.110;2023-06-26T10:15:23;100788.06;;;28.13;41.25
41654;BME280;68687;52.030;7.110;2023-06-26T10:17:51;100792.59;;;28.28;40.86
41654;BME280;68687;52.030;7.110;2023-06-26T10:20:19;100796.13;;;27.62;42.78
41654;BME280;68687;52.030;7.110;2023-06-26T10:22:45;100797.34;;;27.51;42.83
41654;BME280;68687;52.030;7.110;2023-06-26T10:25:12;100813.44;;;27.91;41.62
41654;BME280;68687;52.030;7.110;2023-06-26T10:27:43;100807.75;;;28.49;40.01
41654;BME280;68687;52.030;7.110;2023-06-26T10:30:15;100810.94;;;28.38;36.48
41654;BME280;68687;52.030;7.110;2023-06-26T10:32:43;100805.88;;;28.26;39.60
41654;BME280;68687;52.030;7.110;2023-06-26T10:35:09;100809.59;;;28.91;37.09
41654;BME280;68687;52.030;7.110;2023-06-26T10:37:49;100804.13;;;29.19;38.25
41654;BME280;68687;52.030;7.110;2023-06-26T10:40:22;100817.34;;;28.71;38.42
41654;BME280;68687;52.030;7.110;2023-06-26T10:42:47;100809.03;;;27.90;39.46
41654;BME280;68687;52.030;7.110;2023-06-26T10:45:18;100823.56;;;26.85;41.19
41654;BME280;68687;52.030;7.110;2023-06-26T10:47:49;100815.88;;;26.77;40.96
41654;BME280;68687;52.030;7.110;2023-06-26T10:50:17;100820.44;;;26.58;40.79
41654;BME280;68687;52.030;7.110;2023-06-26T10:52:45;100823.63;;;27.09;41.21
41654;BME280;68687;52.030;7.110;2023-06-26T10:55:11;100822.91;;;27.56;39.55
41654;BME280;68687;52.030;7.110;2023-06-26T10:57:45;100831.06;;;27.14;39.49
41654;BME280;68687;52.030;7.110;2023-06-26T11:00:15;100828.38;;;26.98;39.64
41654;BME280;68687;52.030;7.110;2023-06-26T11:02:53;100835.38;;;26.86;40.24
41654;BME280;68687;52.030;7.110;2023-06-26T11:05:33;100841.44;;;26.83;41.46
41654;BME280;68687;52.030;7.110;2023-06-26T11:08:11;100844.91;;;26.98;41.28
41654;BME280;68687;52.030;7.110;2023-06-26T11:11:07;100851.00;;;27.58;40.89
41654;BME280;68687;52.030;7.110;2023-06-26T11:13:34;100854.22;;;27.42;40.29
41654;BME280;68687;52.030;7.110;2023-06-26T11:16:03;100851.09;;;26.85;40.00
41654;BME280;68687;52.030;7.110;2023-06-26T11:18:28;100855.72;;;26.45;40.53
41654;BME280;68687;52.030;7.110;2023-06-26T11:21:12;100862.03;;;26.51;40.87
41654;BME280;68687;52.030;7.110;2023-06-26T11:23:40;100858.97;;;26.97;40.52
41654;BME280;68687;52.030;7.110;2023-06-26T11:26:19;100847.31;;;27.44;38.91
41654;BME280;68687;52.030;7.110;2023-06-26T11:28:50;100846.88;;;27.32;38.31
41654;BME280;68687;52.030;7.110;2023-06-26T11:34:06;100853.84;;;26.41;39.76
41654;BME280;68687;52.030;7.110;2023-06-26T11:36:35;100865.28;;;25.88;38.59
41654;BME280;68687;52.030;7.110;2023-06-26T11:39:04;100868.59;;;26.55;39.59
41654;BME280;68687;52.030;7.110;2023-06-26T11:41:39;100869.94;;;27.07;38.54
41654;BME280;68687;52.030;7.110;2023-06-26T11:44:06;100861.19;;;26.95;37.15
41654;BME280;68687;52.030;7.110;2023-06-26T11:46:34;100862.63;;;27.26;37.97
41654;BME280;68687;52.030;7.110;2023-06-26T11:48:59;100863.75;;;27.54;37.47
41654;BME280;68687;52.030;7.110;2023-06-26T11:51:27;100870.72;;;26.73;37.35
41654;BME280;68687;52.030;7.110;2023-06-26T11:53:55;100878.63;;;26.85;37.82
41654;BME280;68687;52.030;7.110;2023-06-26T11:56:20;100891.78;;;26.49;37.83
41654;BME280;68687;52.030;7.110;2023-06-26T11:59:02;100897.16;;;26.05;39.22
41654;BME280;68687;52.030;7.110;2023-06-26T12:01:33;100894.59;;;26.39;37.10
41654;BME280;68687;52.030;7.110;2023-06-26T12:04:04;100895.81;;;26.67;37.11
41654;BME280;68687;52.030;7.110;2023-06-26T12:06:32;100888.06;;;26.74;38.04
41654;BME280;68687;52.030;7.110;2023-06-26T12:09:03;100900.34;;;26.92;37.53
41654;BME280;68687;52.030;7.110;2023-06-26T12:11:34;100899.47;;;27.01;38.11
41654;BME280;68687;52.030;7.110;2023-06-26T12:14:00;100903.91;;;27.31;37.35
41654;BME280;68687;52.030;7.110;2023-06-26T12:16:28;100904.16;;;27.01;37.43
41654;BME280;68687;52.030;7.110;2023-06-26T12:19:01;100916.56;;;26.44;37.19
41654;BME280;68687;52.030;7.110;2023-06-26T12:24:02;100912.28;;;26.07;37.58
41654;BME280;68687;52.030;7.110;2023-06-26T12:26:28;100921.28;;;26.28;37.51
41654;BME280;68687;52.030;7.110;2023-06-26T12:29:08;100924.06;;;26.18;36.56
41654;BME280;68687;52.030;7.110;2023-06-26T12:31:34;100918.69;;;25.77;37.33
41654;BME280;68687;52.030;7.110;2023-06-26T12:34:00;100928.28;;;25.39;37.31
41654;BME280;68687;52.030;7.110;2023-06-26T12:36:39;100924.16;;;25.72;36.54
41654;BME280;68687;52.030;7.110;2023-06-26T12:39:05;100929.69;;;25.77;37.17
41654;BME280;68687;52.030;7.110;2023-06-26T12:41:30;100923.09;;;25.48;35.93
41654;BME280;68687;52.030;7.110;2023-06-26T12:43:56;100926.09;;;25.72;35.20
41654;BME280;68687;52.030;7.110;2023-06-26T12:46:34;100926.91;;;25.72;35.74
41654;BME280;68687;52.030;7.110;2023-06-26T12:49:02;100928.25;;;26.05;35.15
41654;BME280;68687;52.030;7.110;2023-06-26T12:51:28;100928.53;;;25.94;36.05
41654;BME280;68687;52.030;7.110;2023-06-26T12:53:53;100942.03;;;25.85;35.93
41654;BME280;68687;52.030;7.110;2023-06-26T12:56:18;100935.16;;;25.42;34.97
41654;BME280;68687;52.030;7.110;2023-06-26T12:58:50;100943.38;;;25.06;36.29
41654;BME280;68687;52.030;7.110;2023-06-26T13:01:22;100943.66;;;25.20;36.79
41654;BME280;68687;52.030;7.110;2023-06-26T13:03:52;100932.41;;;25.42;35.78
41654;BME280;68687;52.030;7.110;2023-06-26T13:06:17;100935.34;;;24.94;36.09
41654;BME280;68687;52.030;7.110;2023-06-26T13:08:42;100936.53;;;25.49;36.46
41654;BME280;68687;52.030;7.110;2023-06-26T13:11:08;100933.50;;;25.46;36.04
41654;BME280;68687;52.030;7.110;2023-06-26T13:13:34;100943.13;;;25.48;35.71
41654;BME280;68687;52.030;7.110;2023-06-26T13:16:02;100947.78;;;25.43;35.90